Time;durP1;ratioP1;P1;durP2;ratioP2;P2;SDS_P1;SDS_P2;PMS_P1;PMS_P2;Temp;Humidity;BMP_temperature;BMP_pressure;BME280_temperature;BME280_humidity;BME280_pressure;Samples;Min_cycle;Max_cycle;Signal;HPM_P1;HPM_P2
2021/06/18 00:00:42;;;;;;;47.33;40.75;;;;;;;;;;5048342;28;20671;-71
2021/06/18 00:03:08;;;;;;;43.20;38.45;;;;;;;;;;5036909;28;20061;-71
2021/06/18 00:05:35;;;;;;;43.95;39.05;;;;;;;;;;5039704;28;20392;-71
2021/06/18 00:08:01;;;;;;;48.78;40.03;;;;;;;;;;5040483;28;20052;-71
2021/06/18 00:10:28;;;;;;;47.10;38.67;;;;;;;;;;5040097;28;20128;-71
2021/06/18 00:12:54;;;;;;;48.90;41.72;;;;;;;;;;5033911;28;20089;-71
2021/06/18 00:15:21;;;;;;;43.60;38.28;;;;;;;;;;5034070;28;20044;-71
2021/06/18 00:17:47;;;;;;;45.40;39.95;;;;;;;;;;5033479;28;20182;-71
2021/06/18 00:20:14;;;;;;;46.50;39.92;;;;;;;;;;5024526;28;20057;-71
2021/06/18 00:22:40;;;;;;;53.40;41.80;;;;;;;;;;5033888;28;20038;-71
2021/06/18 00:25:07;;;;;;;52.30;41.08;;;;;;;;;;5038419;28;20160;-71
2021/06/18 00:27:34;;;;;;;53.40;40.47;;;;;;;;;;5041326;28;20612;-71
2021/06/18 00:30:00;;;;;;;47.90;40.70;;;;;;;;;;5038018;28;20488;-71
2021/06/18 00:32:26;;;;;;;50.22;41.15;;;;;;;;;;5036226;28;20057;-71
2021/06/18 00:34:53;;;;;;;50.30;42.25;;;;;;;;;;5010168;28;20097;-71
2021/06/18 00:37:19;;;;;;;49.55;44.20;;;;;;;;;;5041134;28;20128;-71
2021/06/18 00:39:45;;;;;;;51.95;44.13;;;;;;;;;;5032201;28;20045;-71
2021/06/18 00:42:11;;;;;;;52.80;44.92;;;;;;;;;;5030705;28;20500;-71
2021/06/18 00:44:38;;;;;;;50.22;41.55;;;;;;;;;;5025695;28;20045;-71
2021/06/18 00:47:04;;;;;;;47.50;41.63;;;;;;;;;;5027311;28;20059;-71
2021/06/18 00:49:31;;;;;;;51.10;42.88;;;;;;;;;;5033580;28;20112;-71
2021/06/18 00:51:58;;;;;;;50.60;43.85;;;;;;;;;;5036728;28;20047;-71
2021/06/18 00:54:30;;;;;;;51.92;44.78;;;;;;;;;;5027952;28;20442;-71
2021/06/18 00:56:58;;;;;;;47.15;41.08;;;;;;;;;;5036768;28;20115;-71
2021/06/18 00:59:24;;;;;;;47.20;42.08;;;;;;;;;;5034221;28;20088;-71
2021/06/18 01:01:51;;;;;;;53.55;42.13;;;;;;;;;;5029464;28;20072;-71
2021/06/18 01:04:18;;;;;;;49.25;43.55;;;;;;;;;;5024606;28;20108;-71
2021/06/18 01:06:47;;;;;;;48.08;43.03;;;;;;;;;;5020350;28;20064;-71
2021/06/18 01:09:15;;;;;;;47.28;42.13;;;;;;;;;;5041358;28;20045;-71
2021/06/18 01:11:55;;;;;;;52.00;44.08;;;;;;;;;;5042086;28;20499;-71
2021/06/18 01:14:36;;;;;;;49.67;41.70;;;;;;;;;;5044474;28;20451;-71
2021/06/18 01:17:07;;;;;;;44.80;40.05;;;;;;;;;;5052635;28;20404;-71
2021/06/18 01:19:40;;;;;;;45.88;39.75;;;;;;;;;;5049693;28;20067;-71
2021/06/18 01:22:06;;;;;;;;;;;;;;;;;;5024891;28;20448;-71
2021/06/18 01:24:38;;;;;;;45.67;40.35;;;;;;;;;;5045825;28;19947;-71
2021/06/18 01:27:12;;;;;;;44.22;39.53;;;;;;;;;;5033921;28;20065;-71
2021/06/18 01:29:41;;;;;;;46.10;40.50;;;;;;;;;;5047018;28;20133;-71
2021/06/18 01:32:09;;;;;;;47.35;40.47;;;;;;;;;;5036415;28;20089;-71
2021/06/18 01:34:36;;;;;;;43.28;38.67;;;;;;;;;;5034804;28;20120;-71
2021/06/18 01:37:08;;;;;;;46.72;40.95;;;;;;;;;;5038345;28;20462;-71
2021/06/18 01:39:35;;;;;;;47.03;41.03;;;;;;;;;;5038178;28;20122;-71
2021/06/18 01:42:03;;;;;;;46.80;41.90;;;;;;;;;;5037785;28;20037;-71
2021/06/18 01:44:30;;;;;;;49.50;43.30;;;;;;;;;;5048086;28;20052;-71
2021/06/18 01:46:58;;;;;;;48.28;42.83;;;;;;;;;;5050754;28;20430;-71
2021/06/18 01:49:25;;;;;;;51.00;44.33;;;;;;;;;;5042328;28;20492;-71
2021/06/18 01:51:52;;;;;;;47.80;42.83;;;;;;;;;;5046142;28;20088;-71
2021/06/18 01:54:26;;;;;;;51.65;45.13;;;;;;;;;;5038455;28;20048;-71
2021/06/18 01:56:53;;;;;;;52.90;46.80;;;;;;;;;;5033974;28;20120;-71
2021/06/18 01:59:19;;;;;;;50.05;44.70;;;;;;;;;;5041033;28;20136;-71
2021/06/18 02:05:08;;;;;;;57.15;48.30;;;;;;;;;;5043515;28;20087;-71
2021/06/18 02:07:36;;;;;;;56.33;48.50;;;;;;;;;;5041943;28;20121;-71
2021/06/18 02:10:03;;;;;;;57.38;49.75;;;;;;;;;;5045174;28;20041;-71
2021/06/18 02:12:31;;;;;;;51.15;46.03;;;;;;;;;;5048472;28;20391;-71
2021/06/18 02:14:58;;;;;;;55.53;49.42;;;;;;;;;;5040057;28;20041;-71
2021/06/18 02:17:24;;;;;;;53.00;46.92;;;;;;;;;;5040566;28;20065;-71
2021/06/18 02:19:51;;;;;;;54.67;47.47;;;;;;;;;;5033653;28;20045;-71
2021/06/18 02:22:17;;;;;;;53.17;46.78;;;;;;;;;;5034228;28;20041;-72
2021/06/18 02:24:43;;;;;;;54.00;48.13;;;;;;;;;;5045322;28;20044;-71
2021/06/18 02:27:14;;;;;;;52.63;47.15;;;;;;;;;;5034969;28;20072;-71
2021/06/18 02:29:41;;;;;;;52.78;46.60;;;;;;;;;;5049676;28;20052;-71
2021/06/18 02:32:08;;;;;;;53.80;47.85;;;;;;;;;;5044617;28;20155;-71
2021/06/18 02:34:35;;;;;;;54.40;48.42;;;;;;;;;;5049343;28;20089;-71
2021/06/18 02:37:02;;;;;;;56.17;48.65;;;;;;;;;;5027519;28;20115;-71
2021/06/18 02:39:29;;;;;;;54.67;46.20;;;;;;;;;;5024095;28;20108;-71
2021/06/18 02:41:55;;;;;;;52.75;47.05;;;;;;;;;;5029319;28;20042;-71
2021/06/18 02:44:21;;;;;;;52.92;47.00;;;;;;;;;;5027618;28;20045;-71
2021/06/18 02:46:53;;;;;;;51.58;45.10;;;;;;;;;;5043715;28;20045;-71
2021/06/18 02:49:21;;;;;;;55.20;48.50;;;;;;;;;;5044763;28;20228;-71
2021/06/18 02:51:51;;;;;;;57.80;49.90;;;;;;;;;;5040609;28;20052;-71
2021/06/18 02:54:24;;;;;;;59.83;51.55;;;;;;;;;;5044639;28;20070;-71
2021/06/18 02:56:53;;;;;;;52.90;46.55;;;;;;;;;;5029177;28;20049;-71
2021/06/18 02:59:26;;;;;;;51.97;46.33;;;;;;;;;;5038464;28;20048;-71
2021/06/18 03:01:56;;;;;;;52.83;47.08;;;;;;;;;;5037207;28;20127;-71
2021/06/18 03:04:23;;;;;;;56.00;47.55;;;;;;;;;;5041493;28;20041;-71
2021/06/18 03:06:52;;;;;;;50.60;45.15;;;;;;;;;;5038700;28;20045;-71
2021/06/18 03:09:22;;;;;;;50.60;45.05;;;;;;;;;;5042204;28;20052;-71
2021/06/18 03:11:50;;;;;;;50.92;45.17;;;;;;;;;;5045480;28;20048;-71
2021/06/18 03:14:19;;;;;;;50.38;44.95;;;;;;;;;;5038426;28;20046;-71
2021/06/18 03:16:47;;;;;;;55.08;44.65;;;;;;;;;;5040375;28;20070;-71
2021/06/18 03:19:16;;;;;;;51.20;45.15;;;;;;;;;;5037646;28;20099;-71
2021/06/18 03:21:43;;;;;;;52.35;44.92;;;;;;;;;;5039665;28;20048;-71
2021/06/18 03:24:12;;;;;;;52.35;45.15;;;;;;;;;;5043659;28;20048;-71
2021/06/18 03:26:38;;;;;;;52.92;45.38;;;;;;;;;;5043326;28;20041;-71
2021/06/18 03:29:07;;;;;;;53.33;44.28;;;;;;;;;;5033658;28;20064;-71
2021/06/18 03:31:33;;;;;;;51.88;43.05;;;;;;;;;;5038816;28;20334;-71
2021/06/18 03:34:00;;;;;;;49.17;42.65;;;;;;;;;;5036112;28;20051;-71
2021/06/18 03:36:28;;;;;;;49.08;43.28;;;;;;;;;;5034081;28;20048;-71
2021/06/18 03:38:54;;;;;;;53.08;43.33;;;;;;;;;;5036294;28;20037;-71
2021/06/18 03:41:22;;;;;;;51.28;44.17;;;;;;;;;;5042223;28;20049;-71
2021/06/18 03:43:48;;;;;;;48.22;41.45;;;;;;;;;;5036731;28;20041;-71
2021/06/18 03:46:15;;;;;;;50.17;44.30;;;;;;;;;;5044793;28;20037;-71
2021/06/18 03:48:44;;;;;;;57.10;43.53;;;;;;;;;;5033572;28;20071;-71
2021/06/18 03:51:10;;;;;;;53.97;41.22;;;;;;;;;;5035042;28;20043;-71
2021/06/18 03:53:37;;;;;;;54.35;41.90;;;;;;;;;;5036609;28;20072;-71
2021/06/18 03:56:05;;;;;;;53.67;41.20;;;;;;;;;;5038268;28;20375;-71
2021/06/18 03:58:33;;;;;;;50.60;42.28;;;;;;;;;;5039698;28;20061;-71
2021/06/18 04:01:00;;;;;;;53.40;44.45;;;;;;;;;;5038583;28;20055;-71
2021/06/18 04:03:27;;;;;;;55.88;44.95;;;;;;;;;;5025505;28;20037;-71
2021/06/18 04:05:57;;;;;;;63.97;46.13;;;;;;;;;;5044377;28;20076;-71
2021/06/18 04:08:23;;;;;;;71.13;47.72;;;;;;;;;;5038611;28;20051;-72
2021/06/18 04:10:50;;;;;;;67.93;45.65;;;;;;;;;;5035745;28;20048;-72
2021/06/18 04:13:16;;;;;;;73.50;47.60;;;;;;;;;;5036431;28;20064;-72
2021/06/18 04:15:43;;;;;;;74.50;46.45;;;;;;;;;;5035036;28;20061;-71
2021/06/18 04:18:11;;;;;;;77.80;44.85;;;;;;;;;;5039348;28;20119;-71
2021/06/18 04:20:38;;;;;;;78.28;45.53;;;;;;;;;;5034893;28;20214;-72
2021/06/18 04:23:04;;;;;;;81.75;44.75;;;;;;;;;;5037240;28;20044;-72
2021/06/18 04:25:31;;;;;;;77.15;41.78;;;;;;;;;;5031744;28;20041;-72
2021/06/18 04:27:59;;;;;;;72.97;42.42;;;;;;;;;;5040834;28;20048;-74
2021/06/18 04:30:26;;;;;;;71.22;39.28;;;;;;;;;;5036591;28;20048;-73
2021/06/18 04:32:52;;;;;;;65.38;37.72;;;;;;;;;;5022578;28;20050;-74
2021/06/18 04:35:18;;;;;;;69.13;36.45;;;;;;;;;;5022939;28;20119;-74
2021/06/18 04:37:45;;;;;;;66.22;36.90;;;;;;;;;;5021228;28;20457;-73
2021/06/18 04:40:11;;;;;;;63.42;34.78;;;;;;;;;;5030624;28;20042;-73
2021/06/18 04:42:37;;;;;;;73.15;37.33;;;;;;;;;;5035314;28;20059;-73
2021/06/18 04:45:05;;;;;;;70.03;37.10;;;;;;;;;;5037445;28;20118;-74
2021/06/18 04:47:31;;;;;;;63.88;33.78;;;;;;;;;;5037974;28;20124;-73
2021/06/18 04:49:57;;;;;;;66.50;33.47;;;;;;;;;;5037736;28;20244;-73
2021/06/18 04:52:24;;;;;;;64.50;32.65;;;;;;;;;;5033744;28;20044;-74
2021/06/18 04:54:54;;;;;;;55.47;30.85;;;;;;;;;;5038594;28;20179;-74
2021/06/18 04:57:20;;;;;;;51.60;27.98;;;;;;;;;;5041063;28;20111;-73
2021/06/18 04:59:47;;;;;;;48.10;28.83;;;;;;;;;;5034144;28;20430;-74
2021/06/18 05:02:13;;;;;;;50.13;28.40;;;;;;;;;;5038641;28;20041;-73
2021/06/18 05:04:39;;;;;;;56.95;30.75;;;;;;;;;;5029948;28;20094;-73
2021/06/18 05:07:05;;;;;;;56.53;31.75;;;;;;;;;;5035366;28;20053;-73
2021/06/18 05:09:31;;;;;;;55.95;31.23;;;;;;;;;;5011414;28;20537;-73
2021/06/18 05:11:58;;;;;;;47.90;30.02;;;;;;;;;;5041364;28;20072;-74
2021/06/18 05:14:24;;;;;;;41.65;26.10;;;;;;;;;;5040029;28;20041;-74
2021/06/18 05:16:51;;;;;;;37.88;25.80;;;;;;;;;;5043499;28;20386;-73
2021/06/18 05:19:17;;;;;;;41.28;27.58;;;;;;;;;;5027899;28;20594;-73
2021/06/18 05:21:43;;;;;;;41.38;28.80;;;;;;;;;;5033929;28;20680;-73
2021/06/18 05:24:10;;;;;;;47.35;29.23;;;;;;;;;;5026790;28;20095;-73
2021/06/18 05:26:36;;;;;;;45.33;30.38;;;;;;;;;;5042675;28;20384;-74
2021/06/18 05:29:03;;;;;;;49.53;32.28;;;;;;;;;;5036557;28;20049;-74
2021/06/18 05:31:29;;;;;;;42.35;28.80;;;;;;;;;;5034433;28;20056;-73
2021/06/18 05:33:56;;;;;;;44.38;28.80;;;;;;;;;;5051033;28;20049;-74
2021/06/18 05:36:22;;;;;;;41.67;27.60;;;;;;;;;;5038380;28;20041;-74
2021/06/18 05:38:48;;;;;;;39.55;26.52;;;;;;;;;;5048335;28;20055;-74
2021/06/18 05:41:15;;;;;;;34.47;24.38;;;;;;;;;;5038765;28;20068;-73
2021/06/18 05:43:41;;;;;;;37.28;24.73;;;;;;;;;;5030349;28;20093;-74
2021/06/18 05:46:07;;;;;;;35.20;23.55;;;;;;;;;;5031629;28;20365;-73
2021/06/18 05:48:33;;;;;;;33.53;24.17;;;;;;;;;;5031792;28;20041;-73
2021/06/18 05:51:00;;;;;;;33.15;24.95;;;;;;;;;;5044111;28;20049;-73
2021/06/18 05:53:26;;;;;;;30.75;23.65;;;;;;;;;;5045133;28;20397;-74
2021/06/18 05:55:52;;;;;;;31.73;23.63;;;;;;;;;;5039922;28;20072;-74
2021/06/18 05:58:19;;;;;;;29.38;22.60;;;;;;;;;;5026789;28;20042;-74
2021/06/18 06:00:45;;;;;;;28.65;22.40;;;;;;;;;;5029394;28;20051;-74
2021/06/18 06:03:11;;;;;;;24.80;20.65;;;;;;;;;;5044174;28;20495;-73
2021/06/18 06:05:38;;;;;;;25.92;21.88;;;;;;;;;;5039227;28;20132;-74
2021/06/18 06:08:09;;;;;;;28.05;22.00;;;;;;;;;;5035602;28;20044;-73
2021/06/18 06:10:35;;;;;;;26.55;23.50;;;;;;;;;;5029570;28;20041;-73
2021/06/18 06:13:01;;;;;;;28.83;23.17;;;;;;;;;;5036642;28;20119;-74
2021/06/18 06:15:28;;;;;;;32.50;24.25;;;;;;;;;;5039067;28;20041;-73
2021/06/18 06:17:54;;;;;;;31.63;24.65;;;;;;;;;;5036357;28;20087;-74
2021/06/18 06:20:21;;;;;;;34.55;25.88;;;;;;;;;;5041808;28;20061;-74
2021/06/18 06:22:48;;;;;;;30.13;24.88;;;;;;;;;;5040971;28;20037;-74
2021/06/18 06:25:14;;;;;;;32.13;24.70;;;;;;;;;;5044194;28;20066;-74
2021/06/18 06:27:41;;;;;;;31.60;24.88;;;;;;;;;;5039848;28;20688;-74
2021/06/18 06:30:07;;;;;;;35.17;25.80;;;;;;;;;;5039708;28;20048;-74
2021/06/18 06:32:34;;;;;;;39.13;29.63;;;;;;;;;;5025401;28;20412;-74
2021/06/18 06:35:02;;;;;;;34.75;29.60;;;;;;;;;;5022792;28;20037;-74
2021/06/18 06:37:29;;;;;;;35.83;28.75;;;;;;;;;;5032557;28;20044;-74
2021/06/18 06:39:55;;;;;;;36.63;27.27;;;;;;;;;;5021639;28;20045;-74
2021/06/18 06:42:21;;;;;;;37.58;29.73;;;;;;;;;;5031601;28;20485;-73
2021/06/18 06:44:48;;;;;;;32.13;26.67;;;;;;;;;;5042367;28;20063;-74
2021/06/18 06:47:14;;;;;;;32.05;27.77;;;;;;;;;;5043802;28;20064;-74
2021/06/18 06:49:40;;;;;;;31.67;26.80;;;;;;;;;;5042000;28;20365;-74
2021/06/18 06:52:07;;;;;;;36.10;27.95;;;;;;;;;;5044021;28;20060;-74
2021/06/18 06:54:33;;;;;;;29.13;25.30;;;;;;;;;;5036290;28;20048;-74
2021/06/18 06:57:00;;;;;;;32.78;26.83;;;;;;;;;;5040805;28;20112;-74
2021/06/18 06:59:26;;;;;;;33.38;29.38;;;;;;;;;;5043182;28;20144;-74
2021/06/18 07:01:52;;;;;;;38.38;31.85;;;;;;;;;;5043965;28;20124;-74
2021/06/18 07:04:18;;;;;;;38.88;31.40;;;;;;;;;;5034848;28;20504;-74
2021/06/18 07:06:45;;;;;;;46.55;32.63;;;;;;;;;;5038939;28;20033;-74
2021/06/18 07:09:14;;;;;;;37.33;29.67;;;;;;;;;;5023099;28;20048;-74
2021/06/18 07:11:40;;;;;;;49.00;31.85;;;;;;;;;;5042125;28;20045;-74
2021/06/18 07:14:06;;;;;;;46.30;32.67;;;;;;;;;;5040579;28;20405;-74
2021/06/18 07:16:33;;;;;;;33.97;29.10;;;;;;;;;;5033222;28;20170;-74
2021/06/18 07:19:00;;;;;;;34.40;26.30;;;;;;;;;;5034908;28;20151;-74
2021/06/18 07:21:26;;;;;;;28.40;24.90;;;;;;;;;;5035202;28;20103;-74
2021/06/18 07:23:52;;;;;;;31.20;25.52;;;;;;;;;;5039410;28;20164;-74
2021/06/18 07:26:18;;;;;;;29.13;26.23;;;;;;;;;;5042072;28;20419;-74
2021/06/18 07:28:45;;;;;;;28.38;25.38;;;;;;;;;;5041046;28;20045;-74
2021/06/18 07:31:11;;;;;;;32.03;28.83;;;;;;;;;;5031912;28;20481;-74
2021/06/18 07:33:37;;;;;;;28.35;25.75;;;;;;;;;;5043076;28;20578;-74
2021/06/18 07:36:04;;;;;;;31.65;28.55;;;;;;;;;;5017368;28;20037;-74
2021/06/18 07:38:30;;;;;;;32.42;29.33;;;;;;;;;;5042448;28;20041;-74
2021/06/18 07:40:56;;;;;;;31.40;28.30;;;;;;;;;;5040259;28;20615;-74
2021/06/18 07:43:23;;;;;;;30.63;27.75;;;;;;;;;;5030047;28;20041;-74
2021/06/18 07:45:49;;;;;;;29.17;26.38;;;;;;;;;;5040945;28;20073;-75
2021/06/18 07:48:15;;;;;;;33.03;29.88;;;;;;;;;;5033822;28;20061;-74
2021/06/18 07:50:41;;;;;;;34.10;30.73;;;;;;;;;;5042884;28;20044;-74
2021/06/18 07:53:08;;;;;;;31.30;28.20;;;;;;;;;;5039337;28;20053;-74
2021/06/18 07:55:35;;;;;;;28.27;25.58;;;;;;;;;;5030798;28;20041;-74
2021/06/18 07:58:01;;;;;;;23.27;21.08;;;;;;;;;;5039518;28;20187;-74
2021/06/18 08:00:28;;;;;;;23.38;21.05;;;;;;;;;;5040071;28;20164;-73
2021/06/18 08:02:54;;;;;;;23.92;21.33;;;;;;;;;;5035844;28;20497;-74
2021/06/18 08:05:20;;;;;;;20.52;18.45;;;;;;;;;;5041000;28;20480;-74
2021/06/18 08:07:47;;;;;;;23.90;21.63;;;;;;;;;;5031769;28;20367;-74
2021/06/18 08:10:14;;;;;;;22.33;20.10;;;;;;;;;;5041060;28;20079;-74
2021/06/18 08:12:41;;;;;;;19.48;17.58;;;;;;;;;;5036135;28;20037;-75
2021/06/18 08:15:08;;;;;;;20.52;18.48;;;;;;;;;;5034390;28;20144;-74
2021/06/18 08:17:35;;;;;;;18.00;16.33;;;;;;;;;;5040130;28;20040;-74
2021/06/18 08:20:01;;;;;;;18.70;16.83;;;;;;;;;;5032247;28;20046;-74
2021/06/18 08:22:28;;;;;;;19.50;17.60;;;;;;;;;;5036525;28;20482;-74
2021/06/18 08:24:54;;;;;;;19.05;17.15;;;;;;;;;;5037344;28;20128;-74
2021/06/18 08:27:21;;;;;;;19.13;17.33;;;;;;;;;;5034907;28;20040;-75
2021/06/18 08:29:47;;;;;;;18.15;16.13;;;;;;;;;;5042349;28;20397;-74
2021/06/18 08:32:13;;;;;;;18.23;16.45;;;;;;;;;;5017584;28;20045;-75
2021/06/18 08:34:40;;;;;;;18.15;16.40;;;;;;;;;;5033706;28;20045;-74
2021/06/18 08:37:06;;;;;;;17.88;16.05;;;;;;;;;;5042114;28;20041;-74
2021/06/18 08:39:33;;;;;;;18.15;16.17;;;;;;;;;;5041524;28;20092;-74
2021/06/18 08:41:59;;;;;;;17.77;15.98;;;;;;;;;;5045373;28;20061;-74
2021/06/18 08:44:25;;;;;;;16.13;14.48;;;;;;;;;;5019509;28;20037;-74
2021/06/18 08:46:53;;;;;;;15.40;13.73;;;;;;;;;;5047156;28;20072;-74
2021/06/18 08:49:19;;;;;;;16.77;15.10;;;;;;;;;;5034368;28;20116;-75
2021/06/18 08:51:46;;;;;;;17.20;15.43;;;;;;;;;;5039981;28;20045;-74
2021/06/18 08:54:12;;;;;;;16.40;14.70;;;;;;;;;;5049036;28;20065;-74
2021/06/18 08:56:39;;;;;;;14.65;13.23;;;;;;;;;;5045375;28;20131;-74
2021/06/18 08:59:06;;;;;;;15.07;13.60;;;;;;;;;;5042650;28;20114;-75
2021/06/18 09:01:32;;;;;;;14.48;12.98;;;;;;;;;;5039898;28;20038;-74
2021/06/18 09:04:03;;;;;;;15.68;14.10;;;;;;;;;;5034612;28;20053;-74
2021/06/18 09:06:31;;;;;;;15.50;14.00;;;;;;;;;;5039081;28;20052;-74
2021/06/18 09:09:09;;;;;;;15.30;13.68;;;;;;;;;;5038656;28;20117;-74
2021/06/18 09:11:37;;;;;;;15.43;13.93;;;;;;;;;;5053355;28;20079;-75
2021/06/18 09:14:21;;;;;;;14.88;13.40;;;;;;;;;;5055975;28;20045;-75
2021/06/18 09:17:02;;;;;;;17.60;14.20;;;;;;;;;;5057789;28;20100;-74
2021/06/18 09:19:28;;;;;;;17.80;14.05;;;;;;;;;;5042485;28;20481;-75
2021/06/18 09:21:57;;;;;;;16.20;14.70;;;;;;;;;;5048861;28;20064;-75
2021/06/18 09:24:28;;;;;;;16.85;14.40;;;;;;;;;;5030307;28;20075;-74
2021/06/18 09:26:54;;;;;;;16.02;14.30;;;;;;;;;;5040174;28;20046;-75
2021/06/18 09:29:22;;;;;;;15.82;14.32;;;;;;;;;;5045756;28;20041;-74
2021/06/18 09:31:59;;;;;;;16.25;14.65;;;;;;;;;;5031520;28;20357;-74
2021/06/18 09:34:44;;;;;;;17.50;13.65;;;;;;;;;;5038412;28;20041;-74
2021/06/18 09:37:17;;;;;;;16.33;13.98;;;;;;;;;;5043793;28;20065;-74
2021/06/18 09:40:10;;;;;;;17.50;14.43;;;;;;;;;;5037159;28;20064;-74
2021/06/18 09:42:53;;;;;;;15.82;13.80;;;;;;;;;;5043747;28;20049;-75
2021/06/18 09:45:20;;;;;;;15.80;14.40;;;;;;;;;;5038533;28;20056;-74
2021/06/18 09:47:47;;;;;;;14.00;12.52;;;;;;;;;;5045627;28;20037;-74
2021/06/18 09:50:13;;;;;;;16.67;13.07;;;;;;;;;;5046847;28;20094;-75
2021/06/18 09:52:40;;;;;;;15.57;13.45;;;;;;;;;;5037656;28;20542;-74
2021/06/18 09:55:07;;;;;;;15.38;13.88;;;;;;;;;;5039148;28;20073;-74
2021/06/18 09:57:40;;;;;;;17.42;15.73;;;;;;;;;;5041862;28;20038;-75
2021/06/18 10:00:06;;;;;;;;;;;;;;;;;;5043502;28;20563;-75
2021/06/18 10:02:32;;;;;;;;;;;;;;;;;;5043079;28;19921;-74
2021/06/18 10:04:58;;;;;;;;;;;;;;;;;;5041474;28;21680;-75
2021/06/18 10:07:28;;;;;;;;;;;;;;;;;;5042859;28;19966;-75
2021/06/18 10:09:54;;;;;;;;;;;;;;;;;;5038936;28;19921;-75
2021/06/18 10:12:20;;;;;;;;;;;;;;;;;;5043831;28;19921;-74
2021/06/18 10:14:46;;;;;;;;;;;;;;;;;;5049210;28;19921;-74
2021/06/18 10:17:12;;;;;;;;;;;;;;;;;;5045904;28;19940;-75
2021/06/18 10:19:38;;;;;;;;;;;;;;;;;;5038991;28;19924;-74
2021/06/18 10:22:05;;;;;;;;;;;;;;;;;;5030237;28;20019;-74
2021/06/18 10:24:31;;;;;;;;;;;;;;;;;;5040566;28;19920;-74
2021/06/18 10:26:57;;;;;;;;;;;;;;;;;;5036830;28;19932;-75
2021/06/18 10:29:24;;;;;;;;;;;;;;;;;;5037126;28;19980;-74
2021/06/18 10:31:53;;;;;;;;;;;;;;;;;;5042396;28;19921;-74
2021/06/18 10:34:19;;;;;;;;;;;;;;;;;;5044075;28;19927;-74
2021/06/18 10:36:45;;;;;;;;;;;;;;;;;;5048378;28;19925;-74
2021/06/18 10:39:12;;;;;;;;;;;;;;;;;;5046030;28;20369;-74
2021/06/18 10:41:39;;;;;;;;;;;;;;;;;;5037789;28;19943;-74
2021/06/18 10:44:05;;;;;;;;;;;;;;;;;;5040812;28;19956;-74
2021/06/18 10:46:32;;;;;;;;;;;;;;;;;;5036987;28;19936;-74
2021/06/18 10:48:58;;;;;;;;;;;;;;;;;;5043120;28;19925;-75
2021/06/18 10:51:24;;;;;;;;;;;;;;;;;;5031386;28;19982;-75
2021/06/18 10:53:51;;;;;;;;;;;;;;;;;;5036157;28;19959;-74
2021/06/18 10:56:17;;;;;;;;;;;;;;;;;;5043496;28;19955;-74
2021/06/18 10:58:43;;;;;;;;;;;;;;;;;;5041829;28;19920;-74
2021/06/18 11:01:09;;;;;;;;;;;;;;;;;;5038429;28;19937;-75
2021/06/18 11:03:35;;;;;;;;;;;;;;;;;;5039264;28;19939;-75
2021/06/18 11:06:01;;;;;;;;;;;;;;;;;;5041254;28;19921;-74
2021/06/18 11:08:30;;;;;;;;;;;;;;;;;;5037979;28;19928;-74
2021/06/18 11:10:58;;;;;;;;;;;;;;;;;;5043378;28;19920;-75
2021/06/18 11:13:24;;;;;;;;;;;;;;;;;;5029872;28;19948;-74
2021/06/18 11:15:50;;;;;;;;;;;;;;;;;;5038455;28;20055;-75
2021/06/18 11:18:17;;;;;;;;;;;;;;;;;;5037290;28;19921;-74
2021/06/18 11:20:47;;;;;;;;;;;;;;;;;;5024349;28;19969;-75
2021/06/18 11:23:14;;;;;;;;;;;;;;;;;;5042479;28;19929;-75
2021/06/18 11:25:40;;;;;;;;;;;;;;;;;;5034696;28;19921;-75
2021/06/18 11:28:06;;;;;;;;;;;;;;;;;;5041505;28;19921;-75
2021/06/18 11:30:32;;;;;;;;;;;;;;;;;;5041005;28;19975;-75
2021/06/18 11:32:59;;;;;;;;;;;;;;;;;;5038629;28;19921;-74
2021/06/18 11:35:25;;;;;;;;;;;;;;;;;;5037796;28;19982;-74
2021/06/18 11:37:51;;;;;;;;;;;;;;;;;;5042977;28;19921;-75
2021/06/18 11:40:17;;;;;;;;;;;;;;;;;;5039984;28;19956;-74
2021/06/18 11:42:43;;;;;;;;;;;;;;;;;;5039590;28;20016;-74
2021/06/18 11:45:09;;;;;;;;;;;;;;;;;;5036887;28;19920;-75
2021/06/18 11:47:35;;;;;;;;;;;;;;;;;;5046560;28;19932;-74
2021/06/18 11:50:01;;;;;;;;;;;;;;;;;;5037666;28;19929;-75
2021/06/18 11:52:27;;;;;;;;;;;;;;;;;;5042885;28;19925;-75
2021/06/18 11:54:53;;;;;;;;;;;;;;;;;;5038538;28;19971;-74
2021/06/18 11:57:20;;;;;;;;;;;;;;;;;;5035448;28;19921;-75
2021/06/18 11:59:46;;;;;;;;;;;;;;;;;;5034426;28;19966;-75
2021/06/18 12:02:13;;;;;;;;;;;;;;;;;;5043298;28;19925;-75
2021/06/18 12:04:39;;;;;;;;;;;;;;;;;;5025197;28;19921;-75
2021/06/18 12:07:05;;;;;;;;;;;;;;;;;;5037203;28;20267;-74
2021/06/18 12:09:31;;;;;;;;;;;;;;;;;;5041691;28;20356;-74
2021/06/18 12:11:57;;;;;;;;;;;;;;;;;;5036788;28;19932;-75
2021/06/18 12:14:23;;;;;;;;;;;;;;;;;;5043696;28;19948;-75
2021/06/18 12:16:49;;;;;;;;;;;;;;;;;;5043763;28;19927;-75
2021/06/18 12:19:15;;;;;;;;;;;;;;;;;;5044407;28;19939;-75
2021/06/18 12:21:41;;;;;;;;;;;;;;;;;;5044578;28;19921;-75
2021/06/18 12:24:08;;;;;;;;;;;;;;;;;;5026504;28;20300;-75
2021/06/18 12:26:35;;;;;;;;;;;;;;;;;;5039166;28;19921;-75
2021/06/18 12:29:01;;;;;;;;;;;;;;;;;;5043806;28;19925;-75
2021/06/18 12:31:27;;;;;;;;;;;;;;;;;;5038738;28;19925;-74
2021/06/18 12:33:53;;;;;;;;;;;;;;;;;;5042562;28;19921;-74
2021/06/18 12:36:19;;;;;;;;;;;;;;;;;;5033841;28;20012;-75
2021/06/18 12:38:46;;;;;;;;;;;;;;;;;;5033686;28;20325;-74
2021/06/18 12:41:12;;;;;;;;;;;;;;;;;;5036293;28;20309;-74
2021/06/18 12:43:39;;;;;;;;;;;;;;;;;;5036114;28;19967;-75
2021/06/18 12:46:05;;;;;;;;;;;;;;;;;;5036965;28;20383;-74
2021/06/18 12:48:32;;;;;;;;;;;;;;;;;;5042732;28;19920;-74
2021/06/18 12:50:59;;;;;;;;;;;;;;;;;;5042160;28;19928;-74
2021/06/18 12:53:25;;;;;;;;;;;;;;;;;;5048871;28;20058;-75
2021/06/18 12:55:51;;;;;;;;;;;;;;;;;;5052486;28;19944;-74
2021/06/18 12:58:18;;;;;;;;;;;;;;;;;;5049477;28;20036;-75
2021/06/18 13:00:46;;;;;;;;;;;;;;;;;;5043679;28;20007;-74
2021/06/18 13:03:13;;;;;;;;;;;;;;;;;;5046866;28;19921;-74
2021/06/18 13:05:39;;;;;;;;;;;;;;;;;;5050527;28;19943;-74
2021/06/18 13:08:08;;;;;;;;;;;;;;;;;;5053106;28;19924;-74
2021/06/18 13:10:34;;;;;;;;;;;;;;;;;;5049395;28;19924;-74
2021/06/18 13:13:00;;;;;;;;;;;;;;;;;;5048094;28;20011;-74
2021/06/18 13:15:26;;;;;;;;;;;;;;;;;;5034213;28;19958;-74
2021/06/18 13:17:52;;;;;;;;;;;;;;;;;;5048095;28;20325;-74
2021/06/18 13:20:18;;;;;;;;;;;;;;;;;;5044417;28;20386;-73
2021/06/18 13:22:44;;;;;;;;;;;;;;;;;;5038679;28;19971;-72
2021/06/18 13:25:11;;;;;;;;;;;;;;;;;;5033088;28;19997;-73
2021/06/18 13:27:37;;;;;;;;;;;;;;;;;;5043540;28;19940;-73
2021/06/18 13:30:04;;;;;;;;;;;;;;;;;;5044402;28;19998;-73
2021/06/18 13:32:30;;;;;;;;;;;;;;;;;;5046120;28;20023;-73
2021/06/18 13:34:57;;;;;;;;;;;;;;;;;;5038015;28;19931;-73
2021/06/18 13:37:23;;;;;;;;;;;;;;;;;;5043385;28;20707;-73
2021/06/18 13:39:49;;;;;;;;;;;;;;;;;;5043104;28;19928;-73
2021/06/18 13:42:16;;;;;;;;;;;;;;;;;;5052001;28;19951;-73
2021/06/18 13:44:42;;;;;;;;;;;;;;;;;;5044564;28;19929;-73
2021/06/18 13:47:08;;;;;;;;;;;;;;;;;;5034395;28;19968;-73
2021/06/18 13:49:34;;;;;;;;;;;;;;;;;;5042782;28;19982;-73
2021/06/18 13:52:00;;;;;;;;;;;;;;;;;;5045537;28;19920;-73
2021/06/18 13:54:28;;;;;;;;;;;;;;;;;;5047505;28;20034;-73
2021/06/18 13:56:54;;;;;;;;;;;;;;;;;;5044338;28;20357;-73
2021/06/18 13:59:21;;;;;;;;;;;;;;;;;;5027888;28;20000;-73
2021/06/18 14:01:47;;;;;;;;;;;;;;;;;;5038451;28;20016;-73
2021/06/18 14:04:13;;;;;;;;;;;;;;;;;;5047687;28;19924;-72
2021/06/18 14:06:39;;;;;;;;;;;;;;;;;;5049794;28;20022;-73
2021/06/18 14:09:05;;;;;;;;;;;;;;;;;;5047550;28;19921;-73
2021/06/18 14:11:32;;;;;;;;;;;;;;;;;;5030667;28;19920;-73
2021/06/18 14:14:01;;;;;;;;;;;;;;;;;;5028448;28;20347;-73
2021/06/18 14:16:27;;;;;;;;;;;;;;;;;;5041378;28;19956;-73
2021/06/18 14:18:53;;;;;;;;;;;;;;;;;;5038019;28;19925;-73
2021/06/18 14:21:20;;;;;;;;;;;;;;;;;;5042897;28;20356;-73
2021/06/18 14:23:46;;;;;;;;;;;;;;;;;;5046772;28;20068;-73
2021/06/18 14:26:13;;;;;;;;;;;;;;;;;;5039765;28;19968;-73
2021/06/18 14:28:39;;;;;;;;;;;;;;;;;;5044666;28;19990;-73
2021/06/18 14:31:05;;;;;;;;;;;;;;;;;;5043909;28;20042;-73
2021/06/18 14:33:31;;;;;;;;;;;;;;;;;;5037138;28;19925;-73
2021/06/18 14:35:57;;;;;;;;;;;;;;;;;;5048811;28;19925;-73
2021/06/18 14:38:23;;;;;;;;;;;;;;;;;;5040158;28;19964;-73
2021/06/18 14:40:51;;;;;;;;;;;;;;;;;;5030598;28;19971;-73
2021/06/18 14:43:17;;;;;;;;;;;;;;;;;;5046309;28;19936;-73
2021/06/18 14:45:43;;;;;;;;;;;;;;;;;;5040547;28;19921;-83
2021/06/18 14:48:10;;;;;;;;;;;;;;;;;;5039548;28;19921;-75
2021/06/18 14:50:36;;;;;;;;;;;;;;;;;;5044623;28;19917;-74
2021/06/18 14:53:02;;;;;;;;;;;;;;;;;;5043917;28;19925;-74
2021/06/18 14:55:28;;;;;;;;;;;;;;;;;;5045618;28;19924;-74
2021/06/18 14:57:54;;;;;;;;;;;;;;;;;;5044519;28;20050;-72
2021/06/18 15:00:20;;;;;;;;;;;;;;;;;;5044116;28;19920;-72
2021/06/18 15:02:46;;;;;;;;;;;;;;;;;;5043620;28;19920;-72
2021/06/18 15:05:16;;;;;;;;;;;;;;;;;;5046238;28;19925;-73